Terminal Aerodrome Forecast
Issued by NWS

Home | Current Version | Previous Version | Text Only | Print | Product List | Glossary On
Versions: 1 2 3 4 5 6 7 8 9 10 11 12 13 14 15 16 17 18 19 20 21
000
FTUS43 KGRR 182000 AAA
TAFJXN
TAF AMD
KJXN 182017Z 1820/1918 28005KT P6SM SCT008 OVC015
      TEMPO 1820/1824 4SM -FZDZ BR OVC008
     FM190800 32004KT P6SM OVC025
     FM191100 VRB03KT P6SM BKN040
     FM191600 34003KT P6SM SCT040=

USA.gov is the U.S. government's official web portal to all federal, state and local government web resources and services.